createdAt,value
2018-08-06T00:00:39.460Z,22.85
2018-08-06T00:03:07.763Z,22.67
2018-08-06T00:05:35.685Z,22.72
2018-08-06T00:08:04.189Z,22.71
2018-08-06T00:10:32.599Z,22.83
2018-08-06T00:15:28.669Z,22.42
2018-08-06T00:17:57.109Z,22.38
2018-08-06T00:20:25.484Z,22.08
2018-08-06T00:22:53.878Z,21.86
2018-08-06T00:25:21.986Z,21.88
2018-08-06T00:27:50.325Z,21.63
2018-08-06T00:30:19.725Z,21.74
2018-08-06T00:32:48.384Z,21.91
2018-08-06T00:35:16.734Z,22.12
2018-08-06T00:37:44.685Z,22.17
2018-08-06T00:40:14.726Z,22.31
2018-08-06T00:42:43.498Z,22.47
2018-08-06T00:45:14.454Z,22.54
2018-08-06T00:47:42.649Z,22.28
2018-08-06T00:50:11.001Z,22.13
2018-08-06T00:52:38.949Z,22.07
2018-08-06T00:55:11.021Z,21.64
2018-08-06T00:57:39.234Z,21.69
2018-08-06T01:00:09.962Z,21.72
2018-08-06T01:02:37.852Z,21.78
2018-08-06T01:05:07.317Z,21.73
2018-08-06T01:07:35.374Z,21.83
2018-08-06T01:10:04.721Z,21.73
2018-08-06T01:12:32.694Z,21.64
2018-08-06T01:15:01.062Z,21.91
2018-08-06T01:17:29.339Z,21.67
2018-08-06T01:19:57.717Z,21.47
2018-08-06T01:22:26.102Z,21.54
2018-08-06T01:24:54.055Z,21.71
2018-08-06T01:27:22.451Z,21.67
2018-08-06T01:29:50.826Z,21.58
2018-08-06T01:32:19.246Z,21.52
2018-08-06T01:34:47.114Z,21.58
2018-08-06T01:37:14.990Z,21.41
2018-08-06T01:39:43.170Z,21.58
2018-08-06T01:42:11.630Z,21.65
2018-08-06T01:44:40.071Z,21.25
2018-08-06T01:47:07.976Z,21.51
2018-08-06T01:49:35.885Z,21.49
2018-08-06T01:52:03.750Z,21.52
2018-08-06T01:54:31.597Z,21.58
2018-08-06T01:56:59.533Z,21.62
2018-08-06T01:59:27.397Z,21.57
2018-08-06T02:01:55.250Z,21.56
2018-08-06T02:04:23.170Z,21.50
2018-08-06T02:06:50.978Z,21.55
2018-08-06T02:09:18.863Z,21.45
2018-08-06T02:11:46.704Z,21.32
2018-08-06T02:14:14.548Z,21.27
2018-08-06T02:16:42.774Z,21.15
2018-08-06T02:19:11.223Z,21.30
2018-08-06T02:21:39.593Z,21.44
2018-08-06T02:24:08.073Z,21.31
2018-08-06T02:26:36.545Z,21.20
2018-08-06T02:29:04.708Z,21.11
2018-08-06T02:31:33.094Z,21.14
2018-08-06T02:34:01.612Z,20.93
2018-08-06T02:36:29.849Z,20.89
2018-08-06T02:38:57.762Z,20.98
2018-08-06T02:41:26.232Z,21.03
2018-08-06T02:43:54.478Z,20.92
2018-08-06T02:46:22.850Z,21.18
2018-08-06T02:48:50.800Z,21.18
2018-08-06T02:51:19.206Z,21.42
2018-08-06T02:53:47.442Z,21.53
2018-08-06T02:56:15.858Z,21.29
2018-08-06T02:58:44.136Z,21.10
2018-08-06T03:01:12.510Z,21.26
2018-08-06T03:03:40.377Z,21.41
2018-08-06T03:06:08.302Z,21.47
2018-08-06T03:08:36.718Z,21.55
2018-08-06T03:11:05.203Z,21.45
2018-08-06T03:13:33.364Z,21.13
2018-08-06T03:16:01.862Z,20.96
2018-08-06T03:18:30.338Z,21.01
2018-08-06T03:20:58.753Z,21.13
2018-08-06T03:23:27.209Z,20.82
2018-08-06T03:25:55.471Z,20.82
2018-08-06T03:28:23.853Z,20.96
2018-08-06T03:30:52.331Z,21.14
2018-08-06T03:33:20.712Z,21.22
2018-08-06T03:35:48.784Z,21.03
2018-08-06T03:38:17.256Z,20.73
2018-08-06T03:40:45.589Z,20.84
2018-08-06T03:43:13.493Z,20.93
2018-08-06T03:45:41.879Z,21.00
2018-08-06T03:48:10.262Z,20.81
2018-08-06T03:50:38.637Z,20.83
2018-08-06T03:53:07.123Z,21.11
2018-08-06T03:55:35.637Z,21.19
2018-08-06T03:58:03.861Z,21.22
2018-08-06T04:00:31.797Z,21.35
2018-08-06T04:02:59.713Z,21.28
2018-08-06T04:05:27.613Z,21.07
2018-08-06T04:07:55.456Z,21.27
2018-08-06T04:10:23.367Z,21.24
2018-08-06T04:12:51.262Z,21.15
2018-08-06T04:15:19.274Z,21.40
2018-08-06T04:17:47.193Z,21.46
2018-08-06T04:20:15.985Z,21.52
2018-08-06T04:22:44.158Z,21.51
2018-08-06T04:25:12.238Z,21.69
2018-08-06T04:27:40.124Z,21.76
2018-08-06T04:30:10.316Z,21.77
2018-08-06T04:32:38.708Z,21.85
2018-08-06T04:35:07.177Z,21.93
2018-08-06T04:37:35.497Z,22.06
2018-08-06T04:40:04.354Z,22.14
2018-08-06T04:42:32.622Z,22.19
2018-08-06T04:45:00.478Z,22.27
2018-08-06T04:47:28.410Z,22.27
2018-08-06T04:49:56.312Z,22.35
2018-08-06T04:52:24.500Z,22.39
2018-08-06T04:54:52.921Z,22.50
2018-08-06T04:57:21.254Z,22.57
2018-08-06T04:59:49.230Z,22.65
2018-08-06T05:02:17.141Z,22.80
2018-08-06T05:04:45.025Z,22.89
2018-08-06T05:07:12.877Z,22.91
2018-08-06T05:09:41.961Z,23.13
2018-08-06T05:12:10.394Z,23.20
2018-08-06T05:14:39.742Z,23.29
2018-08-06T05:17:08.274Z,23.39
2018-08-06T05:19:37.625Z,23.50
2018-08-06T05:22:06.200Z,23.73
2018-08-06T05:24:34.428Z,23.80
2018-08-06T05:27:02.453Z,23.89
2018-08-06T05:29:30.444Z,24.05
2018-08-06T05:31:58.511Z,24.06
2018-08-06T05:34:26.805Z,24.29
2018-08-06T05:36:55.082Z,24.36
2018-08-06T05:39:23.481Z,24.34
2018-08-06T05:41:51.954Z,24.34
2018-08-06T05:44:20.428Z,24.44
2018-08-06T05:46:48.698Z,24.54
2018-08-06T05:49:17.418Z,24.70
2018-08-06T05:51:45.863Z,24.80
2018-08-06T05:54:14.232Z,24.82
2018-08-06T05:56:42.625Z,24.79
2018-08-06T05:59:10.970Z,24.87
2018-08-06T06:01:39.372Z,25.06
2018-08-06T06:04:07.461Z,25.13
2018-08-06T06:06:36.073Z,25.21
2018-08-06T06:09:07.813Z,25.23
2018-08-06T06:11:35.765Z,25.38
2018-08-06T06:14:04.095Z,25.28
2018-08-06T06:16:32.077Z,25.24
2018-08-06T06:19:00.061Z,25.43
2018-08-06T06:21:28.041Z,25.56
2018-08-06T06:23:55.961Z,25.56
2018-08-06T06:26:24.007Z,25.63
2018-08-06T06:28:52.000Z,25.74
2018-08-06T06:31:21.220Z,25.79
2018-08-06T06:33:49.218Z,25.81
2018-08-06T06:36:17.137Z,25.98
2018-08-06T06:38:45.102Z,26.01
2018-08-06T06:41:13.044Z,25.91
2018-08-06T06:43:41.053Z,25.89
2018-08-06T06:46:09.122Z,25.92
2018-08-06T06:48:37.441Z,26.05
2018-08-06T06:51:05.805Z,26.15
2018-08-06T06:53:34.091Z,26.19
2018-08-06T06:56:02.358Z,26.22
2018-08-06T06:58:30.342Z,26.32
2018-08-06T07:00:58.710Z,26.37
2018-08-06T07:03:27.395Z,26.45
2018-08-06T07:05:55.500Z,26.56
2018-08-06T07:08:24.037Z,26.63
2018-08-06T07:10:52.322Z,26.71
2018-08-06T07:13:20.701Z,26.73
2018-08-06T07:15:48.903Z,26.78
2018-08-06T07:18:17.458Z,26.84
2018-08-06T07:20:45.740Z,26.95
2018-08-06T07:23:13.665Z,27.03
2018-08-06T07:25:41.653Z,27.12
2018-08-06T07:28:09.689Z,27.15
2018-08-06T07:30:37.658Z,27.25
2018-08-06T07:33:05.788Z,27.23
2018-08-06T07:35:33.722Z,27.24
2018-08-06T07:38:01.666Z,27.26
2018-08-06T07:40:29.689Z,27.35
2018-08-06T07:42:58.275Z,27.43
2018-08-06T07:45:26.649Z,27.50
2018-08-06T07:47:55.124Z,27.61
2018-08-06T07:50:23.298Z,27.58
2018-08-06T07:52:51.273Z,27.64
2018-08-06T07:55:19.334Z,27.73
2018-08-06T07:57:47.276Z,27.74
2018-08-06T08:00:16.922Z,27.90
2018-08-06T08:02:44.930Z,27.86
2018-08-06T08:05:14.331Z,27.90
2018-08-06T08:07:43.895Z,27.98
2018-08-06T08:10:15.179Z,28.03
2018-08-06T08:12:44.085Z,28.16
2018-08-06T08:15:15.309Z,28.16
2018-08-06T08:17:44.629Z,28.24
2018-08-06T08:20:14.138Z,28.37
2018-08-06T08:22:42.553Z,28.36
2018-08-06T08:25:17.540Z,28.49
2018-08-06T08:27:45.978Z,28.54
2018-08-06T08:30:15.112Z,28.43
2018-08-06T08:32:43.058Z,28.53
2018-08-06T08:35:11.997Z,28.58
2018-08-06T08:37:40.115Z,28.61
2018-08-06T08:40:10.473Z,28.69
2018-08-06T08:42:38.985Z,28.74
2018-08-06T08:45:09.530Z,28.89
2018-08-06T08:47:37.740Z,28.90
2018-08-06T08:50:07.299Z,28.91
2018-08-06T08:52:35.616Z,29.02
2018-08-06T08:55:03.749Z,29.07
2018-08-06T08:57:32.210Z,29.04
2018-08-06T09:00:00.623Z,29.16
2018-08-06T09:02:28.992Z,29.23
2018-08-06T09:04:57.702Z,29.25
2018-08-06T09:07:25.616Z,29.27
2018-08-06T09:09:54.616Z,29.24
2018-08-06T09:12:23.153Z,29.36
2018-08-06T09:14:51.114Z,29.40
2018-08-06T09:17:19.125Z,29.50
2018-08-06T09:19:47.139Z,29.65
2018-08-06T09:22:15.131Z,29.55
2018-08-06T09:24:43.138Z,29.54
2018-08-06T09:27:11.133Z,29.66
2018-08-06T09:29:39.104Z,29.70
2018-08-06T09:32:08.401Z,29.77
2018-08-06T09:34:37.574Z,29.81
2018-08-06T09:37:05.610Z,29.70
2018-08-06T09:39:33.508Z,29.85
2018-08-06T09:42:01.422Z,30.02
2018-08-06T09:44:29.386Z,29.99
2018-08-06T09:46:57.359Z,29.93
2018-08-06T09:49:25.305Z,29.84
2018-08-06T09:51:53.573Z,29.93
2018-08-06T09:54:22.054Z,29.91
2018-08-06T09:56:50.434Z,30.00
2018-08-06T09:59:18.697Z,29.94
2018-08-06T10:01:52.464Z,29.91
2018-08-06T10:04:20.801Z,29.91
2018-08-06T10:06:49.324Z,29.86
2018-08-06T10:09:17.143Z,30.01
2018-08-06T10:11:45.626Z,30.11
2018-08-06T10:14:13.986Z,30.33
2018-08-06T10:16:42.013Z,30.48
2018-08-06T10:19:10.060Z,30.36
2018-08-06T10:21:38.043Z,30.40
2018-08-06T10:24:06.449Z,30.38
2018-08-06T10:26:34.886Z,30.39
2018-08-06T10:29:03.441Z,30.34
2018-08-06T10:31:31.817Z,30.29
2018-08-06T10:34:00.198Z,30.37
2018-08-06T10:36:28.534Z,30.27
2018-08-06T10:38:57.058Z,30.31
2018-08-06T10:41:25.537Z,30.23
2018-08-06T10:43:53.434Z,30.25
2018-08-06T10:46:21.423Z,30.28
2018-08-06T10:48:49.335Z,30.19
2018-08-06T10:51:17.319Z,30.22
2018-08-06T10:53:45.324Z,30.28
2018-08-06T10:56:13.284Z,30.37
2018-08-06T10:58:41.238Z,30.56
2018-08-06T11:01:09.165Z,30.53
2018-08-06T11:03:37.105Z,30.60
2018-08-06T11:06:05.253Z,30.41
2018-08-06T11:08:33.593Z,30.38
2018-08-06T11:11:01.961Z,30.41
2018-08-06T11:13:30.147Z,30.51
2018-08-06T11:15:58.729Z,30.56
2018-08-06T11:18:26.663Z,30.71
2018-08-06T11:20:54.626Z,30.86
2018-08-06T11:23:22.626Z,30.84
2018-08-06T11:25:51.014Z,30.84
2018-08-06T11:28:19.422Z,30.87
2018-08-06T11:30:47.850Z,30.88
2018-08-06T11:33:15.823Z,30.83
2018-08-06T11:35:43.842Z,30.63
2018-08-06T11:38:11.983Z,30.45
2018-08-06T11:40:40.246Z,30.39
2018-08-06T11:43:08.337Z,30.67
2018-08-06T11:45:36.288Z,30.71
2018-08-06T11:48:04.886Z,30.71
2018-08-06T11:50:33.161Z,30.90
2018-08-06T11:53:01.642Z,30.95
2018-08-06T11:55:29.885Z,30.91
2018-08-06T11:57:58.289Z,30.86
2018-08-06T12:00:27.586Z,31.00
2018-08-06T12:02:55.966Z,30.93
2018-08-06T12:05:23.925Z,31.02
2018-08-06T12:07:51.909Z,31.00
2018-08-06T12:10:19.978Z,30.84
2018-08-06T12:12:48.818Z,30.88
2018-08-06T12:15:16.855Z,30.80
2018-08-06T12:17:45.300Z,31.00
2018-08-06T12:20:15.256Z,30.96
2018-08-06T12:22:45.672Z,31.00
2018-08-06T12:25:15.005Z,31.08
2018-08-06T12:27:44.091Z,30.86
2018-08-06T12:30:15.211Z,31.03
2018-08-06T12:32:44.133Z,31.14
2018-08-06T12:35:12.507Z,31.06
2018-08-06T12:37:40.935Z,31.19
2018-08-06T12:40:13.709Z,31.04
2018-08-06T12:42:42.249Z,31.11
2018-08-06T12:45:11.428Z,31.13
2018-08-06T12:47:40.078Z,30.91
2018-08-06T12:50:09.730Z,30.87
2018-08-06T12:52:38.706Z,31.07
2018-08-06T12:55:08.130Z,31.14
2018-08-06T12:57:36.713Z,31.07
2018-08-06T13:00:09.854Z,31.14
2018-08-06T13:02:38.234Z,31.32
2018-08-06T13:05:06.662Z,31.20
2018-08-06T13:07:35.180Z,31.23
2018-08-06T13:10:03.669Z,31.20
2018-08-06T13:12:31.946Z,31.12
2018-08-06T13:15:00.327Z,31.23
2018-08-06T13:17:28.815Z,31.27
2018-08-06T13:19:57.675Z,31.36
2018-08-06T13:22:26.179Z,31.18
2018-08-06T13:24:55.016Z,31.19
2018-08-06T13:27:23.211Z,31.31
2018-08-06T13:29:51.705Z,31.57
2018-08-06T13:32:20.105Z,31.53
2018-08-06T13:34:48.687Z,31.46
2018-08-06T13:37:17.058Z,31.38
2018-08-06T13:39:45.333Z,31.35
2018-08-06T13:42:13.717Z,31.26
2018-08-06T13:44:42.235Z,31.21
2018-08-06T13:47:10.670Z,31.26
2018-08-06T13:49:39.149Z,31.27
2018-08-06T13:52:07.429Z,31.40
2018-08-06T13:54:35.815Z,31.28
2018-08-06T13:57:04.078Z,31.30
2018-08-06T13:59:32.686Z,31.09
2018-08-06T14:02:01.055Z,31.31
2018-08-06T14:04:28.945Z,31.26
2018-08-06T14:06:57.553Z,31.45
2018-08-06T14:09:25.491Z,31.51
2018-08-06T14:11:53.528Z,31.67
2018-08-06T14:14:21.510Z,31.60
2018-08-06T14:16:49.479Z,31.50
2018-08-06T14:19:17.383Z,31.70
2018-08-06T14:21:45.434Z,31.55
2018-08-06T14:24:13.469Z,31.42
2018-08-06T14:26:41.954Z,31.34
2018-08-06T14:29:10.330Z,31.46
2018-08-06T14:31:38.821Z,31.37
2018-08-06T14:34:07.496Z,31.25
2018-08-06T14:36:36.077Z,31.31
2018-08-06T14:39:07.794Z,31.13
2018-08-06T14:41:36.305Z,30.92
2018-08-06T14:44:05.323Z,31.26
2018-08-06T14:46:34.077Z,31.04
2018-08-06T14:49:02.466Z,31.17
2018-08-06T14:51:30.849Z,31.19
2018-08-06T14:53:59.228Z,31.16
2018-08-06T14:56:27.913Z,31.23
2018-08-06T14:58:56.490Z,31.33
2018-08-06T15:01:24.869Z,31.42
2018-08-06T15:03:53.355Z,31.24
2018-08-06T15:06:22.087Z,31.31
2018-08-06T15:08:50.583Z,30.99
2018-08-06T15:11:19.051Z,31.01
2018-08-06T15:13:47.573Z,31.15
2018-08-06T15:16:15.962Z,31.30
2018-08-06T15:18:44.434Z,31.42
2018-08-06T15:21:12.913Z,31.40
2018-08-06T15:23:41.303Z,31.51
2018-08-06T15:26:09.873Z,31.14
2018-08-06T15:28:38.058Z,31.21
2018-08-06T15:31:06.951Z,31.19
2018-08-06T15:33:35.417Z,31.19
2018-08-06T15:36:03.694Z,31.13
2018-08-06T15:38:31.880Z,31.14
2018-08-06T15:41:00.040Z,31.15
2018-08-06T15:43:28.379Z,31.10
2018-08-06T15:45:56.665Z,31.00
2018-08-06T15:48:25.174Z,31.00
2018-08-06T15:50:53.663Z,31.02
2018-08-06T15:53:21.930Z,30.98
2018-08-06T15:55:50.418Z,30.95
2018-08-06T15:58:18.577Z,31.01
2018-08-06T16:00:46.975Z,30.97
2018-08-06T16:03:15.534Z,30.93
2018-08-06T16:05:43.932Z,30.87
2018-08-06T16:08:12.394Z,30.98
2018-08-06T16:10:40.572Z,30.83
2018-08-06T16:13:08.965Z,30.78
2018-08-06T16:15:37.316Z,30.85
2018-08-06T16:18:05.891Z,30.88
2018-08-06T16:20:34.325Z,30.83
2018-08-06T16:23:02.771Z,30.97
2018-08-06T16:25:30.841Z,31.01
2018-08-06T16:27:59.329Z,30.97
2018-08-06T16:30:27.805Z,30.91
2018-08-06T16:32:56.084Z,30.88
2018-08-06T16:35:24.720Z,30.89
2018-08-06T16:37:55.084Z,30.87
2018-08-06T16:40:23.362Z,31.04
2018-08-06T16:42:52.005Z,30.97
2018-08-06T16:45:20.534Z,30.77
2018-08-06T16:47:49.145Z,30.66
2018-08-06T16:50:17.961Z,30.78
2018-08-06T16:52:46.348Z,30.65
2018-08-06T16:55:14.874Z,30.74
2018-08-06T16:57:43.338Z,30.65
2018-08-06T17:00:14.373Z,30.65
2018-08-06T17:02:42.644Z,30.78
2018-08-06T17:05:12.162Z,30.68
2018-08-06T17:07:40.897Z,30.43
2018-08-06T17:10:12.737Z,30.38
2018-08-06T17:12:42.193Z,30.28
2018-08-06T17:15:11.449Z,30.31
2018-08-06T17:17:39.604Z,30.23
2018-08-06T17:20:10.713Z,30.02
2018-08-06T17:22:38.777Z,30.12
2018-08-06T17:25:08.085Z,30.11
2018-08-06T17:27:36.112Z,30.09
2018-08-06T17:30:04.606Z,30.00
2018-08-06T17:32:32.545Z,29.86
2018-08-06T17:35:00.798Z,29.73
2018-08-06T17:37:29.261Z,29.52
2018-08-06T17:39:57.559Z,29.41
2018-08-06T17:42:25.522Z,29.30
2018-08-06T17:44:53.976Z,29.27
2018-08-06T17:47:22.464Z,29.15
2018-08-06T17:49:50.405Z,29.11
2018-08-06T17:52:18.818Z,28.96
2018-08-06T17:54:47.198Z,28.95
2018-08-06T17:57:15.785Z,28.92
2018-08-06T17:59:44.063Z,28.92
2018-08-06T18:02:12.549Z,28.98
2018-08-06T18:04:40.818Z,28.92
2018-08-06T18:07:09.181Z,28.87
2018-08-06T18:09:37.566Z,28.88
2018-08-06T18:12:05.946Z,28.90
2018-08-06T18:14:34.435Z,28.88
2018-08-06T18:17:02.808Z,28.95
2018-08-06T18:19:31.073Z,28.87
2018-08-06T18:21:59.350Z,28.95
2018-08-06T18:24:27.725Z,28.93
2018-08-06T18:26:56.100Z,28.91
2018-08-06T18:29:24.286Z,28.90
2018-08-06T18:31:52.666Z,28.82
2018-08-06T18:34:20.995Z,28.74
2018-08-06T18:36:49.043Z,28.87
2018-08-06T18:39:17.582Z,28.99
2018-08-06T18:41:46.065Z,29.08
2018-08-06T18:44:14.044Z,29.02
2018-08-06T18:46:42.216Z,29.00
2018-08-06T18:49:10.498Z,29.06
2018-08-06T18:51:38.865Z,29.09
2018-08-06T18:54:07.441Z,29.10
2018-08-06T18:56:35.934Z,29.24
2018-08-06T18:59:04.306Z,28.97
2018-08-06T19:01:32.617Z,28.85
2018-08-06T19:04:01.062Z,28.94
2018-08-06T19:06:29.443Z,28.91
2018-08-06T19:08:57.914Z,28.91
2018-08-06T19:11:26.513Z,28.93
2018-08-06T19:14:00.207Z,28.94
2018-08-06T19:16:28.577Z,28.76
2018-08-06T19:19:02.218Z,28.78
2018-08-06T19:21:30.157Z,28.76
2018-08-06T19:24:03.989Z,28.83
2018-08-06T19:26:32.333Z,28.76
2018-08-06T19:29:00.615Z,28.55
2018-08-06T19:31:29.094Z,28.63
2018-08-06T19:33:57.816Z,28.45
2018-08-06T19:36:25.813Z,28.58
2018-08-06T19:38:54.321Z,28.53
2018-08-06T19:41:22.594Z,28.68
2018-08-06T19:43:50.518Z,28.71
2018-08-06T19:46:18.837Z,28.34
2018-08-06T19:48:47.422Z,28.47
2018-08-06T19:51:15.602Z,28.76
2018-08-06T19:53:44.192Z,28.62
2018-08-06T19:56:14.038Z,28.45
2018-08-06T19:58:42.584Z,28.14
2018-08-06T20:01:10.961Z,27.79
2018-08-06T20:03:39.217Z,27.60
2018-08-06T20:06:07.813Z,27.45
2018-08-06T20:08:36.193Z,27.36
2018-08-06T20:11:04.882Z,27.26
2018-08-06T20:13:33.461Z,27.23
2018-08-06T20:16:01.829Z,27.11
2018-08-06T20:18:30.346Z,27.09
2018-08-06T20:20:58.689Z,27.03
2018-08-06T20:23:27.178Z,26.99
2018-08-06T20:25:55.548Z,26.97
2018-08-06T20:28:24.043Z,27.03
2018-08-06T20:30:52.609Z,26.99
2018-08-06T20:33:20.998Z,26.89
2018-08-06T20:35:49.269Z,26.97
2018-08-06T20:38:17.644Z,26.93
2018-08-06T20:40:46.135Z,26.89
2018-08-06T20:43:14.479Z,26.78
2018-08-06T20:45:42.877Z,26.83
2018-08-06T20:48:11.262Z,26.78
2018-08-06T20:50:39.641Z,26.73
2018-08-06T20:53:07.671Z,26.67
2018-08-06T20:55:36.090Z,26.27
2018-08-06T20:58:04.561Z,26.18
2018-08-06T21:00:32.502Z,26.15
2018-08-06T21:03:01.083Z,26.02
2018-08-06T21:05:29.605Z,25.89
2018-08-06T21:07:57.617Z,25.75
2018-08-06T21:10:26.049Z,25.69
2018-08-06T21:12:54.438Z,25.60
2018-08-06T21:15:22.700Z,25.64
2018-08-06T21:17:51.177Z,25.51
2018-08-06T21:20:19.562Z,25.36
2018-08-06T21:22:48.745Z,25.44
2018-08-06T21:25:17.024Z,25.36
2018-08-06T21:27:46.485Z,25.47
2018-08-06T21:30:17.821Z,25.48
2018-08-06T21:32:48.345Z,25.45
2018-08-06T21:35:17.653Z,25.44
2018-08-06T21:37:47.196Z,25.20
2018-08-06T21:40:15.595Z,25.16
2018-08-06T21:42:44.068Z,25.18
2018-08-06T21:45:12.445Z,24.97
2018-08-06T21:47:41.032Z,24.95
2018-08-06T21:50:10.235Z,24.88
2018-08-06T21:52:38.710Z,24.76
2018-08-06T21:55:07.650Z,24.59
2018-08-06T21:57:36.084Z,24.39
2018-08-06T22:00:40.814Z,24.15
2018-08-06T22:03:13.496Z,24.37
2018-08-06T22:05:42.138Z,24.14
2018-08-06T22:08:10.658Z,24.25
2018-08-06T22:10:39.032Z,24.09
2018-08-06T22:13:08.068Z,24.35
2018-08-06T22:15:36.613Z,24.06
2018-08-06T22:18:05.261Z,23.93
2018-08-06T22:20:33.665Z,23.92
2018-08-06T22:23:02.054Z,24.04
2018-08-06T22:25:30.412Z,23.66
2018-08-06T22:27:58.808Z,23.73
2018-08-06T22:30:27.169Z,23.92
2018-08-06T22:32:55.555Z,23.95
2018-08-06T22:35:23.633Z,24.10
2018-08-06T22:37:52.014Z,24.14
2018-08-06T22:40:20.492Z,24.35
2018-08-06T22:42:48.569Z,24.33
2018-08-06T22:45:16.838Z,24.21
2018-08-06T22:47:45.117Z,24.13
2018-08-06T22:50:13.749Z,23.94
2018-08-06T22:52:42.381Z,23.97
2018-08-06T22:55:11.673Z,23.97
2018-08-06T22:57:40.009Z,23.89
2018-08-06T23:00:12.944Z,23.94
2018-08-06T23:02:41.885Z,23.89
2018-08-06T23:05:11.139Z,23.80
2018-08-06T23:07:39.758Z,23.65
2018-08-06T23:10:15.154Z,23.85
2018-08-06T23:12:43.936Z,23.77
2018-08-06T23:15:14.603Z,23.66
2018-08-06T23:17:43.682Z,23.55
2018-08-06T23:20:11.950Z,23.44
2018-08-06T23:22:40.315Z,23.42
2018-08-06T23:25:08.897Z,23.71
2018-08-06T23:27:37.949Z,23.70
2018-08-06T23:30:12.317Z,23.55
2018-08-06T23:32:40.902Z,23.55
2018-08-06T23:35:10.563Z,23.57
2018-08-06T23:37:39.849Z,23.50
2018-08-06T23:40:08.941Z,23.60
2018-08-06T23:42:37.932Z,23.53
2018-08-06T23:45:07.405Z,23.06
2018-08-06T23:47:35.677Z,22.99
2018-08-06T23:50:04.709Z,22.87
2018-08-06T23:52:32.953Z,23.02
2018-08-06T23:55:01.517Z,23.12
2018-08-06T23:57:29.889Z,23.14
2018-08-06T23:59:58.433Z,23.00
